Time;durP1;ratioP1;P1;durP2;ratioP2;P2;SDS_P1;SDS_P2;PMS_P1;PMS_P2;Temp;Humidity;BMP_temperature;BMP_pressure;BME280_temperature;BME280_humidity;BME280_pressure;Samples;Min_cycle;Max_cycle;Signal;HPM_P1;HPM_P2
2022/08/06 00:01:30;;;;;;;5.97;3.20;;;12.50;99.90;;;;;;5043334;28;20055;-68
2022/08/06 00:03:56;;;;;;;4.90;2.83;;;12.50;99.90;;;;;;5024918;28;20063;-68
2022/08/06 00:06:22;;;;;;;6.95;2.78;;;12.50;99.90;;;;;;5074597;28;20043;-68
2022/08/06 00:08:48;;;;;;;6.03;2.75;;;12.50;99.90;;;;;;5041222;28;20067;-69
2022/08/06 00:11:14;;;;;;;8.75;2.90;;;12.50;99.90;;;;;;5056820;28;20050;-68
2022/08/06 00:13:39;;;;;;;4.63;2.50;;;12.50;99.90;;;;;;5060461;28;20505;-68
2022/08/06 00:16:05;;;;;;;4.30;2.72;;;12.40;99.90;;;;;;5043153;28;20099;-69
2022/08/06 00:18:31;;;;;;;5.22;2.70;;;12.40;99.90;;;;;;5042322;28;20375;-69
2022/08/06 00:20:57;;;;;;;4.70;2.80;;;12.40;99.90;;;;;;5060654;28;20061;-68
2022/08/06 00:23:22;;;;;;;8.32;3.03;;;12.30;99.90;;;;;;5075304;28;20090;-68
2022/08/06 00:25:48;;;;;;;4.95;2.80;;;12.30;99.90;;;;;;5044223;28;20044;-68
2022/08/06 00:28:14;;;;;;;7.65;3.75;;;12.30;99.90;;;;;;5039175;28;20041;-68
2022/08/06 00:30:40;;;;;;;10.43;3.70;;;12.30;99.90;;;;;;5043830;28;20075;-68
2022/08/06 00:33:05;;;;;;;7.93;3.67;;;12.20;99.90;;;;;;5040114;28;20120;-68
2022/08/06 00:35:31;;;;;;;5.85;3.38;;;12.20;99.90;;;;;;5039167;28;20440;-68
2022/08/06 00:37:57;;;;;;;5.90;3.30;;;12.10;99.90;;;;;;5057175;28;20450;-68
2022/08/06 00:40:23;;;;;;;6.05;3.35;;;12.10;99.90;;;;;;5059077;28;20040;-68
2022/08/06 00:42:51;;;;;;;4.68;2.97;;;12.10;99.90;;;;;;5041500;28;20033;-68
2022/08/06 00:45:16;;;;;;;4.13;2.88;;;12.10;99.90;;;;;;5077273;28;20099;-68
2022/08/06 00:47:42;;;;;;;8.73;3.33;;;12.00;99.90;;;;;;5043784;28;20045;-68
2022/08/06 00:50:08;;;;;;;7.68;3.28;;;12.00;99.90;;;;;;5043256;28;20052;-68
2022/08/06 00:52:34;;;;;;;9.65;3.53;;;12.00;99.90;;;;;;5044832;28;20128;-68
2022/08/06 00:54:59;;;;;;;4.53;3.58;;;12.00;99.90;;;;;;5042694;28;20177;-68
2022/08/06 00:57:25;;;;;;;5.70;3.67;;;12.00;99.90;;;;;;5055842;28;20071;-68
2022/08/06 00:59:51;;;;;;;4.38;3.50;;;11.90;99.90;;;;;;5043780;28;20096;-68
2022/08/06 01:02:16;;;;;;;7.63;3.88;;;11.90;99.90;;;;;;5041345;28;20056;-68
2022/08/06 01:04:42;;;;;;;6.20;3.80;;;11.90;99.90;;;;;;5058411;28;20041;-69
2022/08/06 01:07:08;;;;;;;6.03;3.53;;;11.90;99.90;;;;;;5058230;28;20505;-68
2022/08/06 01:09:33;;;;;;;8.70;3.95;;;11.90;99.90;;;;;;5040385;28;20044;-68
2022/08/06 01:11:59;;;;;;;7.80;3.30;;;11.80;99.90;;;;;;5060202;28;20552;-68
2022/08/06 01:14:26;;;;;;;5.65;3.20;;;11.80;99.90;;;;;;5060084;28;20508;-68
2022/08/06 01:17:02;;;;;;;5.22;3.50;;;11.80;99.90;;;;;;5042656;28;20168;-68
2022/08/06 01:19:48;;;;;;;7.05;3.40;;;11.80;99.90;;;;;;5075255;28;20040;-68
2022/08/06 01:22:27;;;;;;;8.63;3.20;;;11.80;99.90;;;;;;5047521;28;20509;-68
2022/08/06 01:25:08;;;;;;;5.43;3.67;;;11.70;99.90;;;;;;5077618;28;20527;-68
2022/08/06 01:27:43;;;;;;;6.72;3.75;;;11.70;99.90;;;;;;5061121;28;20547;-68
2022/08/06 01:30:20;;;;;;;3.50;3.13;;;11.60;99.90;;;;;;5038377;28;20409;-68
2022/08/06 01:32:54;;;;;;;7.32;3.75;;;11.60;99.90;;;;;;5039605;28;20033;-68
2022/08/06 01:35:29;;;;;;;7.55;3.40;;;11.60;99.90;;;;;;5074821;28;20068;-68
2022/08/06 01:38:06;;;;;;;7.22;4.13;;;11.50;99.90;;;;;;5074227;28;20413;-68
2022/08/06 01:40:35;;;;;;;6.20;4.20;;;11.50;99.90;;;;;;5039345;28;20120;-68
2022/08/06 01:43:04;;;;;;;7.95;3.80;;;11.50;99.90;;;;;;5022164;28;20296;-68
2022/08/06 01:45:33;;;;;;;9.30;4.00;;;11.50;99.90;;;;;;5044041;28;20524;-69
2022/08/06 01:48:03;;;;;;;6.13;3.97;;;11.50;99.90;;;;;;5059855;28;20124;-69
2022/08/06 01:50:36;;;;;;;9.27;4.22;;;11.50;99.90;;;;;;5022022;28;20074;-69
2022/08/06 01:53:05;;;;;;;6.88;4.18;;;11.40;99.90;;;;;;5040526;28;20523;-69
2022/08/06 01:55:36;;;;;;;5.70;3.72;;;11.40;99.90;;;;;;5075044;28;20068;-69
2022/08/06 01:58:04;;;;;;;4.95;3.72;;;11.40;99.90;;;;;;5036776;28;20048;-69
2022/08/06 02:00:32;;;;;;;5.63;3.63;;;11.40;99.90;;;;;;5041686;28;20037;-69
2022/08/06 02:03:07;;;;;;;7.40;3.90;;;11.30;99.90;;;;;;5039784;28;20143;-69
2022/08/06 02:05:34;;;;;;;7.00;3.97;;;11.30;99.90;;;;;;5037391;28;20036;-69
2022/08/06 02:08:01;;;;;;;6.53;3.60;;;11.30;99.90;;;;;;5039923;28;20175;-69
2022/08/06 02:10:30;;;;;;;6.97;3.58;;;11.30;99.90;;;;;;5027382;28;20041;-69
2022/08/06 02:12:56;;;;;;;6.53;4.40;;;11.20;99.90;;;;;;5076642;28;20036;-69
2022/08/06 02:15:27;;;;;;;7.75;4.10;;;11.20;99.90;;;;;;5042791;28;20502;-69
2022/08/06 02:17:57;;;;;;;5.97;4.13;;;11.20;99.90;;;;;;5069689;28;20494;-69
2022/08/06 02:20:30;;;;;;;7.95;4.47;;;11.10;99.90;;;;;;5075558;28;20045;-69
2022/08/06 02:22:59;;;;;;;8.20;3.83;;;11.10;99.90;;;;;;5037561;28;20045;-69
2022/08/06 02:25:26;;;;;;;5.63;4.00;;;11.10;99.90;;;;;;5041005;28;20033;-69
2022/08/06 02:27:55;;;;;;;5.57;4.20;;;11.10;99.90;;;;;;5041410;28;20045;-69
2022/08/06 02:30:22;;;;;;;8.65;4.57;;;11.10;99.90;;;;;;5050299;28;20529;-69
2022/08/06 02:32:49;;;;;;;6.05;4.07;;;11.10;99.90;;;;;;5040550;28;20063;-69
2022/08/06 02:35:15;;;;;;;8.70;4.28;;;11.10;99.90;;;;;;5040600;28;20585;-69
2022/08/06 02:37:44;;;;;;;8.57;4.40;;;11.00;99.90;;;;;;5059488;28;20052;-69
2022/08/06 02:40:40;;;;;;;8.98;4.40;;;11.00;99.90;;;;;;5043340;28;20041;-69
2022/08/06 02:43:44;;;;;;;8.57;4.70;;;11.00;99.90;;;;;;5040410;28;20053;-69
2022/08/06 02:46:10;;;;;;;9.05;5.25;;;10.90;99.90;;;;;;4998696;28;20415;-69
2022/08/06 02:48:45;;;;;;;5.60;4.63;;;10.90;99.90;;;;;;5030770;28;20048;-69
2022/08/06 02:51:16;;;;;;;8.88;4.57;;;10.90;99.90;;;;;;5053562;28;20069;-69
2022/08/06 02:54:07;;;;;;;8.27;4.43;;;10.80;99.90;;;;;;5058857;28;20108;-69
2022/08/06 02:56:37;;;;;;;5.63;4.22;;;10.80;99.90;;;;;;5039970;28;20043;-69
2022/08/06 02:59:04;;;;;;;7.35;4.13;;;10.70;99.90;;;;;;5074091;28;20366;-69
2022/08/06 03:01:36;;;;;;;5.55;3.78;;;10.70;99.90;;;;;;5074096;28;20049;-69
2022/08/06 03:04:04;;;;;;;7.55;4.03;;;10.70;99.90;;;;;;5059742;28;20045;-69
2022/08/06 03:06:32;;;;;;;4.70;4.07;;;10.70;99.90;;;;;;5024482;28;20041;-69
2022/08/06 03:09:00;;;;;;;5.13;4.30;;;10.70;99.90;;;;;;5038628;28;20045;-69
2022/08/06 03:11:30;;;;;;;5.95;4.20;;;10.60;99.90;;;;;;5039434;28;20038;-69
2022/08/06 03:13:58;;;;;;;10.10;4.07;;;10.60;99.90;;;;;;5037903;28;20619;-69
2022/08/06 03:16:26;;;;;;;7.93;4.20;;;10.60;99.90;;;;;;5056239;28;20040;-69
2022/08/06 03:18:55;;;;;;;4.55;3.70;;;10.60;99.90;;;;;;5055227;28;20044;-69
2022/08/06 03:21:22;;;;;;;6.75;3.97;;;10.60;99.90;;;;;;5040150;28;20179;-69
2022/08/06 03:23:49;;;;;;;7.13;3.97;;;10.60;99.90;;;;;;5039556;28;20036;-69
2022/08/06 03:26:16;;;;;;;6.45;4.25;;;10.60;99.90;;;;;;5040600;28;20135;-69
2022/08/06 03:28:43;;;;;;;7.70;3.85;;;10.60;99.90;;;;;;5023379;28;20063;-69
2022/08/06 03:31:10;;;;;;;4.35;3.90;;;10.60;99.90;;;;;;5038965;28;20061;-69
2022/08/06 03:33:38;;;;;;;4.55;3.83;;;10.50;99.90;;;;;;5068489;28;20049;-69
2022/08/06 03:36:05;;;;;;;7.72;4.07;;;10.50;99.90;;;;;;5037654;28;20045;-69
2022/08/06 03:38:45;;;;;;;6.45;4.35;;;10.50;99.90;;;;;;5057929;28;20068;-69
2022/08/06 03:41:12;;;;;;;4.55;3.45;;;10.50;99.90;;;;;;5054981;28;20033;-69
2022/08/06 03:43:39;;;;;;;8.15;4.10;;;10.50;99.90;;;;;;5056339;28;20555;-69
2022/08/06 03:46:06;;;;;;;4.72;3.83;;;10.50;99.90;;;;;;5053150;28;20517;-69
2022/08/06 03:48:41;;;;;;;6.53;4.13;;;10.50;99.90;;;;;;5041412;28;20048;-69
2022/08/06 03:51:13;;;;;;;6.15;4.07;;;10.40;99.90;;;;;;5073410;28;20049;-69
2022/08/06 03:53:41;;;;;;;4.45;4.05;;;10.40;99.90;;;;;;5039755;28;20110;-69
2022/08/06 03:56:08;;;;;;;7.95;4.40;;;10.90;99.90;;;;;;5039498;28;20067;-69
2022/08/06 03:58:38;;;;;;;5.35;3.83;;;10.40;99.90;;;;;;5042440;28;20037;-69
2022/08/06 04:01:09;;;;;;;4.82;3.95;;;10.40;99.90;;;;;;5041325;28;20241;-69
2022/08/06 04:03:37;;;;;;;6.30;4.50;;;10.30;99.90;;;;;;5071850;28;20196;-68
2022/08/06 04:06:03;;;;;;;5.63;4.25;;;10.40;99.90;;;;;;5071202;28;20571;-69
2022/08/06 04:08:30;;;;;;;6.32;4.30;;;10.40;99.90;;;;;;5054731;28;20045;-69
2022/08/06 04:10:58;;;;;;;6.60;4.55;;;10.40;99.90;;;;;;5037803;28;20041;-69
2022/08/06 04:13:25;;;;;;;7.68;4.50;;;10.40;99.90;;;;;;5040289;28;20495;-68
2022/08/06 04:15:53;;;;;;;4.93;4.18;;;10.40;99.90;;;;;;5038620;28;20036;-69
2022/08/06 04:18:33;;;;;;;4.78;4.00;;;10.40;99.90;;;;;;5034630;28;20037;-69
2022/08/06 04:21:06;;;;;;;5.28;3.97;;;10.40;99.90;;;;;;5073207;28;20520;-68
2022/08/06 04:23:32;;;;;;;;;;;10.30;99.90;;;;;;5040857;28;20043;-69
2022/08/06 04:26:01;;;;;;;5.70;3.92;;;10.30;99.90;;;;;;5037703;28;19925;-69
2022/08/06 04:28:29;;;;;;;7.68;4.07;;;10.40;99.90;;;;;;5036362;28;20056;-69
2022/08/06 04:30:58;;;;;;;7.22;4.47;;;10.30;99.90;;;;;;5070305;28;20506;-69
2022/08/06 04:33:26;;;;;;;4.47;4.03;;;10.30;99.90;;;;;;5071393;28;20540;-69
2022/08/06 04:35:52;;;;;;;5.18;3.90;;;10.30;99.90;;;;;;5073596;28;20049;-69
2022/08/06 04:38:20;;;;;;;6.50;4.60;;;10.40;99.90;;;;;;5043667;28;20602;-69
2022/08/06 04:40:46;;;;;;;7.95;3.95;;;10.40;99.90;;;;;;5076807;28;20780;-69
2022/08/06 04:43:12;;;;;;;7.65;3.67;;;10.40;99.90;;;;;;5078629;28;20040;-69
2022/08/06 04:45:41;;;;;;;4.78;4.20;;;10.40;99.90;;;;;;5042560;28;20486;-69
2022/08/06 04:48:09;;;;;;;4.18;3.78;;;10.40;99.90;;;;;;5061117;28;20044;-69
2022/08/06 04:50:36;;;;;;;6.25;3.58;;;10.50;99.90;;;;;;5073660;28;20482;-69
2022/08/06 04:53:11;;;;;;;5.20;3.70;;;10.50;99.90;;;;;;5059738;28;20049;-69
2022/08/06 04:55:37;;;;;;;4.75;3.65;;;10.50;99.90;;;;;;5040065;28;20094;-69
2022/08/06 04:58:04;;;;;;;6.45;3.67;;;10.50;99.90;;;;;;5051450;28;20049;-69
2022/08/06 05:00:32;;;;;;;7.25;4.18;;;10.60;99.90;;;;;;5053311;28;20042;-69
2022/08/06 05:02:58;;;;;;;8.25;3.88;;;10.60;99.90;;;;;;5031135;28;20573;-69
2022/08/06 05:05:24;;;;;;;5.15;3.58;;;10.60;99.90;;;;;;5030917;28;20121;-69
2022/08/06 05:07:53;;;;;;;5.03;4.05;;;10.70;99.90;;;;;;5039729;28;20433;-69
2022/08/06 05:10:22;;;;;;;4.47;4.00;;;10.70;99.90;;;;;;5076809;28;20037;-69
2022/08/06 05:12:53;;;;;;;4.47;3.65;;;10.80;99.90;;;;;;5042612;28;20043;-69
2022/08/06 05:15:29;;;;;;;5.25;3.63;;;10.80;99.90;;;;;;5074091;28;20041;-69
2022/08/06 05:17:58;;;;;;;5.57;3.70;;;10.80;99.90;;;;;;5040105;28;20453;-69
2022/08/06 05:20:26;;;;;;;5.07;3.60;;;10.90;99.90;;;;;;5041161;28;20075;-69
2022/08/06 05:22:57;;;;;;;4.75;3.00;;;10.90;99.90;;;;;;5040921;28;20106;-69
2022/08/06 05:25:23;;;;;;;5.30;3.30;;;11.00;99.90;;;;;;5040711;28;20038;-69
2022/08/06 05:27:48;;;;;;;6.50;4.03;;;11.10;99.90;;;;;;5042222;28;20551;-69
2022/08/06 05:30:15;;;;;;;6.63;3.42;;;11.10;99.90;;;;;;5057495;28;20084;-69
2022/08/06 05:32:42;;;;;;;6.60;3.50;;;11.20;99.90;;;;;;5060143;28;20119;-69
2022/08/06 05:35:08;;;;;;;3.72;3.13;;;11.20;99.90;;;;;;5040951;28;20119;-69
2022/08/06 05:37:34;;;;;;;4.13;3.45;;;11.30;99.90;;;;;;5034998;28;20033;-70
2022/08/06 05:39:59;;;;;;;4.22;3.10;;;11.40;99.90;;;;;;5040071;28;20755;-69
2022/08/06 05:42:25;;;;;;;4.22;3.22;;;11.40;99.90;;;;;;5024368;28;20466;-69
2022/08/06 05:44:51;;;;;;;6.43;3.20;;;11.50;99.90;;;;;;5056569;28;20046;-69
2022/08/06 05:47:22;;;;;;;4.18;2.85;;;11.60;99.90;;;;;;5032972;28;20376;-69
2022/08/06 05:49:52;;;;;;;3.90;2.60;;;11.70;99.90;;;;;;5059322;28;20037;-70
2022/08/06 05:52:30;;;;;;;4.80;2.70;;;11.70;99.90;;;;;;5055918;28;20037;-70
2022/08/06 05:55:08;;;;;;;3.00;2.60;;;11.80;99.90;;;;;;5074236;28;20041;-69
2022/08/06 05:57:39;;;;;;;2.70;2.50;;;12.00;99.90;;;;;;5039810;28;20144;-69
2022/08/06 06:00:10;;;;;;;3.08;2.78;;;12.10;99.90;;;;;;5058561;28;20041;-69
2022/08/06 06:02:41;;;;;;;4.25;2.50;;;12.20;99.90;;;;;;5022554;28;20178;-69
2022/08/06 06:05:08;;;;;;;3.92;2.90;;;12.20;99.90;;;;;;5039126;28;20044;-69
2022/08/06 06:07:35;;;;;;;7.97;3.22;;;12.30;99.90;;;;;;5058173;28;20088;-69
2022/08/06 06:10:03;;;;;;;6.10;2.75;;;12.30;99.90;;;;;;5053908;28;20045;-69
2022/08/06 06:12:30;;;;;;;4.78;2.88;;;12.40;99.90;;;;;;5032543;28;20116;-69
2022/08/06 06:14:56;;;;;;;4.45;2.83;;;12.40;99.90;;;;;;5032736;28;20120;-69
2022/08/06 06:17:51;;;;;;;4.07;2.60;;;12.50;99.90;;;;;;5041278;28;20131;-70
2022/08/06 06:20:20;;;;;;;4.25;2.38;;;12.60;99.90;;;;;;5053679;28;20047;-70
2022/08/06 06:23:08;;;;;;;8.55;2.97;;;12.60;99.90;;;;;;5074373;28;20037;-70
2022/08/06 06:25:49;;;;;;;3.20;2.70;;;12.70;99.90;;;;;;5039492;28;20120;-70
2022/08/06 06:28:52;;;;;;;4.30;2.60;;;12.80;99.90;;;;;;5040956;28;20044;-70
2022/08/06 06:31:30;;;;;;;4.20;2.80;;;12.90;99.90;;;;;;5025208;28;20132;-70
2022/08/06 06:34:06;;;;;;;3.35;2.60;;;13.10;99.90;;;;;;5026700;28;20046;-70
2022/08/06 06:36:46;;;;;;;3.08;2.50;;;13.20;99.90;;;;;;5046988;28;20045;-70
2022/08/06 06:39:25;;;;;;;3.08;2.40;;;13.30;99.90;;;;;;5009546;28;20100;-70
2022/08/06 06:42:09;;;;;;;4.53;2.65;;;13.40;99.90;;;;;;5026197;28;20128;-70
2022/08/06 06:44:42;;;;;;;4.53;2.08;;;13.50;99.90;;;;;;5029068;28;20041;-71
2022/08/06 06:47:29;;;;;;;2.60;1.98;;;13.70;99.90;;;;;;5028687;28;20138;-70
2022/08/06 06:49:59;;;;;;;3.88;2.30;;;13.80;99.90;;;;;;5028454;28;20697;-71
2022/08/06 06:52:34;;;;;;;3.00;2.05;;;14.00;99.90;;;;;;5023294;28;20041;-70
2022/08/06 06:55:08;;;;;;;3.72;2.28;;;14.10;99.90;;;;;;5029401;28;20080;-70
2022/08/06 06:57:38;;;;;;;3.47;2.03;;;14.20;99.90;;;;;;5028077;28;20087;-70
2022/08/06 07:00:06;;;;;;;2.00;1.70;;;14.40;99.90;;;;;;5027488;28;20055;-71
2022/08/06 07:02:39;;;;;;;3.35;1.90;;;14.50;99.90;;;;;;5008847;28;20641;-71
2022/08/06 07:05:06;;;;;;;3.30;2.03;;;14.60;99.90;;;;;;4994382;28;20030;-70
2022/08/06 07:07:34;;;;;;;2.63;2.13;;;14.80;99.90;;;;;;5046907;28;20042;-71
2022/08/06 07:10:01;;;;;;;3.53;2.13;;;15.00;99.90;;;;;;5027005;28;20361;-71
2022/08/06 07:12:30;;;;;;;2.88;2.10;;;15.10;99.90;;;;;;5029358;28;20067;-71
2022/08/06 07:14:58;;;;;;;3.60;2.20;;;15.30;99.90;;;;;;5029877;28;20044;-71
2022/08/06 07:17:25;;;;;;;3.83;2.33;;;15.40;99.90;;;;;;5049661;28;20041;-71
2022/08/06 07:19:54;;;;;;;2.72;2.45;;;15.60;99.90;;;;;;5073147;28;20084;-71
2022/08/06 07:22:22;;;;;;;4.72;2.78;;;15.70;99.90;;;;;;5035593;28;20086;-71
2022/08/06 07:24:56;;;;;;;2.22;2.00;;;15.90;99.90;;;;;;5072200;28;20033;-72
2022/08/06 07:27:22;;;;;;;5.18;2.40;;;16.00;99.90;;;;;;5038274;28;20604;-71
2022/08/06 07:29:48;;;;;;;5.85;2.53;;;16.10;99.90;;;;;;5041619;28;20398;-71
2022/08/06 07:32:16;;;;;;;4.18;2.60;;;16.30;99.90;;;;;;5053211;28;20045;-71
2022/08/06 07:34:42;;;;;;;5.10;2.85;;;16.40;99.90;;;;;;5036011;28;20427;-72
2022/08/06 07:37:11;;;;;;;4.28;2.75;;;16.60;99.90;;;;;;5072980;28;20124;-72
2022/08/06 07:39:39;;;;;;;3.03;2.05;;;16.60;99.90;;;;;;5039598;28;20556;-72
2022/08/06 07:42:12;;;;;;;4.88;2.00;;;16.70;99.90;;;;;;5012679;28;20038;-72
2022/08/06 07:44:44;;;;;;;1.85;1.70;;;16.80;99.90;;;;;;5024593;28;20555;-72
2022/08/06 07:47:15;;;;;;;2.58;2.15;;;16.90;99.90;;;;;;5055438;28;20070;-72
2022/08/06 07:49:43;;;;;;;3.10;1.98;;;17.10;99.90;;;;;;5035046;28;20041;-72
2022/08/06 07:52:14;;;;;;;3.45;1.77;;;17.20;99.90;;;;;;5022000;28;20052;-72
2022/08/06 07:54:41;;;;;;;2.75;1.52;;;17.30;99.90;;;;;;5030454;28;20043;-72
2022/08/06 07:57:08;;;;;;;3.47;1.70;;;17.40;99.90;;;;;;5036832;28;20052;-72
2022/08/06 07:59:34;;;;;;;1.15;1.00;;;17.50;99.90;;;;;;5028722;28;20352;-72
2022/08/06 08:02:02;;;;;;;2.50;1.40;;;17.60;99.90;;;;;;5045346;28;20140;-72
2022/08/06 08:07:15;;;;;;;1.70;0.95;;;17.70;99.90;;;;;;5051291;28;20127;-72
2022/08/06 08:09:43;;;;;;;2.53;1.20;;;17.80;99.90;;;;;;5047853;28;20502;-72
2022/08/06 08:12:15;;;;;;;2.47;1.17;;;17.90;99.90;;;;;;5049460;28;20033;-72
2022/08/06 08:14:43;;;;;;;3.00;0.88;;;18.00;99.90;;;;;;5032059;28;20099;-71
2022/08/06 08:17:09;;;;;;;2.70;0.93;;;18.10;99.90;;;;;;5049155;28;20044;-72
2022/08/06 08:19:35;;;;;;;3.60;1.05;;;18.20;99.90;;;;;;5044579;28;20552;-74
2022/08/06 08:22:17;;;;;;;1.92;0.93;;;18.30;99.90;;;;;;5044606;28;20041;-74
2022/08/06 08:24:45;;;;;;;2.00;1.10;;;18.50;99.90;;;;;;5067092;28;20495;-74
2022/08/06 08:27:11;;;;;;;1.83;0.80;;;18.70;99.90;;;;;;5049868;28;20518;-73
2022/08/06 08:29:38;;;;;;;3.13;1.00;;;18.80;99.90;;;;;;5040315;28;20115;-74
2022/08/06 08:32:06;;;;;;;4.40;0.90;;;18.60;99.90;;;;;;5051689;28;20045;-75
2022/08/06 08:34:32;;;;;;;3.25;1.20;;;18.70;99.90;;;;;;5055763;28;20108;-75
2022/08/06 08:36:58;;;;;;;1.92;0.98;;;18.90;99.90;;;;;;5053600;28;20110;-76
2022/08/06 08:39:24;;;;;;;2.20;1.00;;;19.10;99.90;;;;;;5031895;28;20541;-76
2022/08/06 08:41:54;;;;;;;3.00;0.95;;;19.20;99.90;;;;;;5040518;28;20402;-76
2022/08/06 08:44:24;;;;;;;1.45;0.75;;;19.30;99.90;;;;;;5045164;28;20092;-76
2022/08/06 08:46:51;;;;;;;1.83;0.70;;;19.20;99.90;;;;;;5040587;28;20121;-75
2022/08/06 08:49:34;;;;;;;2.35;1.45;;;19.10;99.90;;;;;;5032578;28;20048;-75
2022/08/06 08:52:02;;;;;;;2.53;1.00;;;19.30;99.90;;;;;;5039720;28;20125;-75
2022/08/06 08:54:31;;;;;;;2.50;0.80;;;19.40;99.90;;;;;;5033394;28;20521;-75
2022/08/06 08:56:57;;;;;;;0.70;0.65;;;19.50;99.90;;;;;;5039288;28;20034;-74
2022/08/06 08:59:23;;;;;;;3.17;1.10;;;19.60;99.80;;;;;;5009138;28;20044;-74
2022/08/06 09:01:50;;;;;;;1.30;0.82;;;19.60;99.70;;;;;;5051724;28;20487;-74
2022/08/06 09:04:16;;;;;;;2.85;0.85;;;19.70;99.40;;;;;;5024641;28;20423;-74
2022/08/06 09:06:42;;;;;;;5.38;1.05;;;19.90;99.60;;;;;;5031239;28;20469;-74
2022/08/06 09:09:08;;;;;;;1.10;0.90;;;20.00;99.10;;;;;;5030579;28;20072;-75
2022/08/06 09:11:36;;;;;;;0.88;0.80;;;20.30;99.30;;;;;;5052533;28;20370;-75
2022/08/06 09:14:04;;;;;;;1.42;1.00;;;20.40;98.70;;;;;;5053713;28;20042;-74
2022/08/06 09:16:31;;;;;;;3.28;1.17;;;20.20;97.90;;;;;;5018890;28;20037;-75
2022/08/06 09:18:58;;;;;;;0.77;0.70;;;19.90;97.50;;;;;;5041525;28;20041;-75
2022/08/06 09:21:23;;;;;;;1.95;0.98;;;19.90;98.20;;;;;;5074702;28;20044;-73
2022/08/06 09:23:49;;;;;;;23.88;2.90;;;20.00;98.20;;;;;;5071104;28;20033;-71
2022/08/06 09:26:15;;;;;;;5.80;1.30;;;20.10;98.10;;;;;;5039988;28;20117;-76
2022/08/06 09:28:44;;;;;;;1.25;1.00;;;20.10;97.20;;;;;;5058853;28;20038;-72
2022/08/06 09:31:14;;;;;;;1.25;1.08;;;19.90;97.40;;;;;;5040097;28;20064;-71
2022/08/06 09:33:56;;;;;;;7.15;1.65;;;19.70;97.20;;;;;;5039710;28;20496;-72
2022/08/06 09:36:22;;;;;;;6.40;1.65;;;19.40;97.60;;;;;;5026353;28;20045;-74
2022/08/06 09:38:52;;;;;;;3.00;0.90;;;19.30;97.80;;;;;;5038084;28;20056;-72
2022/08/06 09:41:24;;;;;;;3.40;1.10;;;19.20;98.00;;;;;;5071790;28;20075;-72
2022/08/06 09:43:53;;;;;;;3.70;0.90;;;19.20;98.20;;;;;;5042932;28;20037;-71
2022/08/06 09:46:45;;;;;;;3.90;1.27;;;19.00;98.30;;;;;;5074279;28;20315;-70
2022/08/06 09:49:13;;;;;;;1.33;0.80;;;19.00;98.60;;;;;;5058012;28;20037;-70
2022/08/06 09:51:40;;;;;;;4.28;1.20;;;19.30;98.50;;;;;;5076096;28;20037;-73
2022/08/06 09:54:09;;;;;;;4.05;0.90;;;19.80;99.00;;;;;;5042180;28;20083;-74
2022/08/06 09:56:36;;;;;;;1.67;0.90;;;20.30;98.00;;;;;;5039655;28;20040;-72
2022/08/06 09:59:07;;;;;;;1.85;0.90;;;20.80;97.30;;;;;;5064752;28;20049;-73
2022/08/06 10:01:44;;;;;;;3.37;1.00;;;21.10;96.50;;;;;;5039888;28;20041;-73
2022/08/06 10:04:23;;;;;;;1.63;1.10;;;21.10;95.40;;;;;;5038103;28;20045;-71
2022/08/06 10:06:56;;;;;;;7.30;1.52;;;20.90;95.20;;;;;;5055192;28;20597;-79
2022/08/06 10:09:22;;;;;;;5.78;1.40;;;20.50;95.00;;;;;;5037787;28;20072;-72
2022/08/06 10:11:48;;;;;;;4.90;1.63;;;20.20;95.30;;;;;;5074079;28;20037;-71
2022/08/06 10:14:31;;;;;;;12.48;1.63;;;20.00;95.10;;;;;;5057084;28;20116;-70
2022/08/06 10:17:11;;;;;;;2.05;0.95;;;19.80;94.90;;;;;;5053464;28;20040;-70
2022/08/06 10:19:38;;;;;;;2.28;1.10;;;19.80;94.80;;;;;;5035640;28;20041;-72
2022/08/06 10:22:07;;;;;;;2.10;1.70;;;20.20;94.30;;;;;;5058694;28;20055;-72
2022/08/06 10:24:38;;;;;;;1.55;1.40;;;20.60;93.60;;;;;;5074654;28;20041;-75
2022/08/06 10:27:06;;;;;;;1.42;1.25;;;21.00;92.10;;;;;;5048699;28;20045;-75
2022/08/06 10:29:35;;;;;;;3.28;1.63;;;21.40;92.10;;;;;;5035678;28;20040;-74
2022/08/06 10:32:04;;;;;;;2.05;1.20;;;21.70;92.10;;;;;;5028817;28;20049;-74
2022/08/06 10:34:31;;;;;;;2.83;1.42;;;21.80;91.50;;;;;;5018087;28;20045;-74
2022/08/06 10:37:05;;;;;;;5.00;1.20;;;21.60;91.30;;;;;;5020837;28;20068;-74
2022/08/06 10:39:34;;;;;;;2.28;1.20;;;21.30;91.40;;;;;;4995687;28;20403;-74
2022/08/06 10:42:01;;;;;;;3.40;1.23;;;21.00;92.20;;;;;;5022406;28;20041;-74
2022/08/06 10:44:27;;;;;;;2.60;1.60;;;20.80;93.00;;;;;;5062980;28;20041;-76
2022/08/06 10:46:53;;;;;;;4.03;1.67;;;20.60;93.30;;;;;;5029271;28;20100;-72
2022/08/06 10:49:20;;;;;;;2.95;1.83;;;20.40;93.30;;;;;;5046015;28;20041;-79
2022/08/06 10:51:48;;;;;;;3.92;1.70;;;20.20;93.70;;;;;;5012923;28;20375;-78
2022/08/06 10:54:18;;;;;;;3.00;1.83;;;20.10;93.70;;;;;;5031954;28;20068;-78
2022/08/06 10:56:45;;;;;;;3.00;1.60;;;19.90;93.90;;;;;;5036235;28;20044;-78
2022/08/06 10:59:15;;;;;;;7.20;1.58;;;19.80;94.00;;;;;;5052689;28;20045;-77
2022/08/06 11:02:02;;;;;;;1.85;1.27;;;19.90;94.50;;;;;;5036626;28;20486;-77
2022/08/06 11:04:49;;;;;;;1.75;1.20;;;20.30;94.80;;;;;;5065560;28;20076;-78
2022/08/06 11:07:36;;;;;;;2.35;1.33;;;20.80;93.60;;;;;;5036836;28;20442;-77
2022/08/06 11:10:29;;;;;;;2.33;1.40;;;21.20;93.50;;;;;;5068903;28;20045;-77
2022/08/06 11:13:28;;;;;;;3.72;1.20;;;21.10;93.20;;;;;;5020567;28;20071;-77
2022/08/06 11:15:54;;;;;;;2.42;1.40;;;20.90;94.20;;;;;;5035061;28;20048;-77
2022/08/06 11:18:21;;;;;;;2.38;1.45;;;20.70;94.50;;;;;;5036464;28;20036;-75
2022/08/06 11:20:49;;;;;;;2.78;1.70;;;20.40;94.70;;;;;;5035982;28;20033;-75
2022/08/06 11:23:15;;;;;;;4.45;1.90;;;20.20;95.00;;;;;;5056117;28;20033;-76
2022/08/06 11:25:44;;;;;;;2.42;1.48;;;20.20;95.20;;;;;;5052223;28;20402;-76
2022/08/06 11:28:18;;;;;;;2.95;1.25;;;20.10;95.20;;;;;;5053828;28;20051;-76
2022/08/06 11:30:46;;;;;;;3.92;1.92;;;20.10;95.50;;;;;;5035845;28;20481;-77
2022/08/06 11:33:14;;;;;;;3.35;1.80;;;20.10;95.40;;;;;;5035293;28;20045;-77
2022/08/06 11:35:48;;;;;;;2.65;1.75;;;20.10;95.10;;;;;;5050994;28;20033;-76
2022/08/06 11:38:46;;;;;;;1.50;1.40;;;20.10;94.90;;;;;;5038786;28;20494;-77
2022/08/06 11:41:18;;;;;;;2.70;1.67;;;20.60;94.60;;;;;;5018894;28;20916;-77
2022/08/06 11:43:48;;;;;;;1.85;1.45;;;21.10;94.50;;;;;;5037054;28;20384;-76
2022/08/06 11:46:24;;;;;;;4.28;1.95;;;21.60;93.80;;;;;;5052811;28;20117;-77
2022/08/06 11:48:59;;;;;;;1.50;1.40;;;22.00;92.10;;;;;;5035548;28;20139;-77
2022/08/06 11:51:55;;;;;;;3.33;1.70;;;22.10;91.30;;;;;;5054634;28;20033;-77
2022/08/06 11:54:23;;;;;;;4.07;1.42;;;22.20;90.70;;;;;;5037645;28;20048;-77
2022/08/06 11:56:58;;;;;;;1.85;1.63;;;22.20;91.60;;;;;;5045478;28;20410;-77
2022/08/06 11:59:25;;;;;;;2.63;1.45;;;22.00;91.10;;;;;;5023777;28;20044;-78
2022/08/06 12:01:51;;;;;;;2.28;1.45;;;21.80;91.50;;;;;;5050184;28;20095;-77
2022/08/06 12:04:35;;;;;;;2.58;1.70;;;21.50;91.40;;;;;;5039466;28;20037;-77
2022/08/06 12:07:25;;;;;;;1.77;1.55;;;21.40;90.80;;;;;;5037497;28;20037;-78
2022/08/06 12:10:06;;;;;;;3.00;1.50;;;21.10;90.70;;;;;;5073345;28;20068;-77
2022/08/06 12:12:42;;;;;;;2.20;1.60;;;20.90;90.40;;;;;;5030771;28;20037;-77
2022/08/06 12:15:20;;;;;;;2.50;1.48;;;20.80;91.40;;;;;;5025092;28;20042;-77
2022/08/06 12:17:55;;;;;;;3.30;1.70;;;20.80;91.80;;;;;;5044987;28;20096;-77
2022/08/06 12:20:31;;;;;;;1.85;1.45;;;20.80;91.70;;;;;;5052816;28;20120;-77
2022/08/06 12:22:58;;;;;;;2.67;1.60;;;20.80;91.20;;;;;;5061522;28;20091;-78
2022/08/06 12:25:30;;;;;;;3.78;1.50;;;20.90;91.70;;;;;;5027983;28;20037;-78
2022/08/06 12:27:57;;;;;;;4.43;1.83;;;20.90;91.40;;;;;;5044116;28;20037;-78
2022/08/06 12:30:23;;;;;;;5.07;1.80;;;21.10;91.50;;;;;;5007902;28;20301;-77
2022/08/06 12:32:48;;;;;;;2.25;1.63;;;21.30;90.80;;;;;;5041878;28;20086;-77
2022/08/06 12:35:14;;;;;;;3.90;1.65;;;21.40;90.10;;;;;;5052398;28;20052;-77
2022/08/06 12:37:43;;;;;;;2.38;1.70;;;21.60;90.00;;;;;;5051692;28;20625;-77
2022/08/06 12:40:27;;;;;;;1.95;1.35;;;21.90;89.40;;;;;;5036331;28;20041;-77
2022/08/06 12:43:02;;;;;;;2.15;1.48;;;22.30;88.10;;;;;;5066946;28;20044;-77
2022/08/06 12:45:30;;;;;;;3.13;1.52;;;22.50;85.60;;;;;;5071455;28;20068;-76
2022/08/06 12:48:02;;;;;;;2.75;1.40;;;22.60;84.40;;;;;;5069895;28;20037;-75
2022/08/06 12:50:30;;;;;;;3.33;1.85;;;22.50;83.80;;;;;;5039501;28;20063;-75
2022/08/06 12:53:03;;;;;;;3.75;2.50;;;22.40;84.40;;;;;;5038551;28;20044;-77
2022/08/06 12:55:33;;;;;;;3.45;1.80;;;22.20;83.10;;;;;;5057384;28;20040;-74
2022/08/06 12:58:00;;;;;;;2.05;1.70;;;22.00;82.50;;;;;;5041614;28;20041;-75
2022/08/06 13:00:26;;;;;;;3.25;1.40;;;22.00;82.30;;;;;;5032253;28;20044;-75
2022/08/06 13:02:53;;;;;;;1.88;1.25;;;22.30;82.10;;;;;;5048377;28;20060;-74
2022/08/06 13:05:20;;;;;;;1.45;1.23;;;22.60;79.10;;;;;;5031177;28;20041;-75
2022/08/06 13:07:47;;;;;;;2.08;1.38;;;22.70;79.40;;;;;;5031720;28;20460;-76